createdAt,value
2018-11-10T00:11:13.750Z,9.50
2018-11-10T00:13:42.254Z,9.50
2018-11-10T00:16:15.467Z,9.50
2018-11-10T00:18:44.275Z,9.50
2018-11-10T00:21:24.561Z,9.50
2018-11-10T00:23:58.915Z,9.50
2018-11-10T00:26:27.853Z,9.50
2018-11-10T01:40:51.100Z,9.50
2018-11-10T01:43:19.997Z,9.70
2018-11-10T01:45:49.000Z,9.70
2018-11-10T01:48:31.621Z,9.70
2018-11-10T01:51:00.520Z,9.70
2018-11-10T01:53:35.899Z,9.80
2018-11-10T01:58:46.279Z,9.70
2018-11-10T02:01:14.855Z,9.70
2018-11-10T02:03:56.488Z,9.80
2018-11-10T02:06:30.272Z,9.80
2018-11-10T02:09:02.588Z,9.80
2018-11-10T02:11:37.425Z,9.80
2018-11-10T02:14:31.301Z,9.80
2018-11-10T03:10:34.745Z,9.90
2018-11-10T03:13:03.030Z,10.50
2018-11-10T03:15:31.313Z,10.50
2018-11-10T03:17:59.650Z,10.50
2018-11-10T03:20:28.002Z,10.50
2018-11-10T03:22:56.314Z,10.50
2018-11-10T03:25:24.633Z,10.60
2018-11-10T03:27:52.942Z,10.60
2018-11-10T03:30:21.299Z,10.60
2018-11-10T03:32:49.605Z,10.60
2018-11-10T03:35:17.954Z,10.70
2018-11-10T03:37:46.277Z,10.70
2018-11-10T03:40:14.630Z,10.80
2018-11-10T03:42:42.929Z,10.80
2018-11-10T03:45:12.062Z,10.80
2018-11-10T03:47:40.521Z,10.90
2018-11-10T03:50:09.397Z,10.90
2018-11-10T03:52:37.770Z,11.00
2018-11-10T03:55:06.598Z,11.00
2018-11-10T03:57:34.950Z,11.00
2018-11-10T04:00:03.298Z,11.00
2018-11-10T04:02:31.628Z,11.00
2018-11-10T04:05:00.114Z,11.00
2018-11-10T04:07:28.478Z,10.90
2018-11-10T04:09:56.787Z,10.90
2018-11-10T04:12:25.135Z,10.90
2018-11-10T04:14:53.474Z,10.90
2018-11-10T04:17:21.787Z,10.90
2018-11-10T04:19:50.095Z,10.90
2018-11-10T04:22:25.602Z,10.90
2018-11-10T04:24:53.918Z,10.90
2018-11-10T04:27:22.218Z,10.90
2018-11-10T04:29:50.566Z,10.90
2018-11-10T04:32:18.902Z,11.00
2018-11-10T04:34:47.295Z,11.00
2018-11-10T04:37:15.626Z,10.90
2018-11-10T04:39:43.919Z,11.00
2018-11-10T04:44:46.880Z,10.90
2018-11-10T04:47:15.301Z,10.90
2018-11-10T04:49:43.717Z,10.80
2018-11-10T04:52:11.968Z,10.80
2018-11-10T04:54:40.307Z,10.90
2018-11-10T04:57:08.623Z,10.90
2018-11-10T04:59:37.088Z,10.90
2018-11-10T05:02:05.459Z,10.90
2018-11-10T05:04:33.772Z,11.00
2018-11-10T05:07:02.099Z,11.10
2018-11-10T05:09:30.534Z,11.10
2018-11-10T05:11:58.843Z,11.20
2018-11-10T05:14:27.738Z,11.40
2018-11-10T05:16:56.031Z,11.40
2018-11-10T05:19:24.775Z,11.50
2018-11-10T05:21:53.075Z,11.60
2018-11-10T05:24:21.407Z,11.70
2018-11-10T05:26:49.695Z,11.70
2018-11-10T05:29:18.016Z,11.70
2018-11-10T05:31:46.300Z,11.80
2018-11-10T05:34:14.616Z,11.80
2018-11-10T05:36:42.936Z,11.90
2018-11-10T05:39:11.492Z,11.90
2018-11-10T05:41:39.870Z,11.90
2018-11-10T05:44:08.167Z,11.90
2018-11-10T05:46:36.507Z,12.00
2018-11-10T05:49:05.143Z,12.00
2018-11-10T05:51:33.512Z,12.00
2018-11-10T05:54:01.767Z,12.10
2018-11-10T05:56:30.063Z,12.10
2018-11-10T05:58:58.364Z,12.10
2018-11-10T06:01:26.671Z,12.20
2018-11-10T06:03:54.983Z,12.20
2018-11-10T06:06:23.273Z,12.30
2018-11-10T06:08:51.564Z,12.30
2018-11-10T06:11:19.835Z,12.30
2018-11-10T06:13:48.179Z,12.30
2018-11-10T06:16:16.560Z,12.40
2018-11-10T06:18:44.800Z,12.40
2018-11-10T06:21:13.030Z,12.50
2018-11-10T06:23:41.333Z,12.50
2018-11-10T06:26:09.806Z,12.60
2018-11-10T06:28:38.076Z,12.60
2018-11-10T06:31:06.513Z,12.70
2018-11-10T06:33:34.824Z,12.70
2018-11-10T06:36:03.105Z,12.70
2018-11-10T06:38:31.420Z,12.60
2018-11-10T06:40:59.772Z,12.60
2018-11-10T06:43:28.073Z,12.60
2018-11-10T06:45:56.421Z,12.60
2018-11-10T06:48:24.764Z,12.70
2018-11-10T06:50:53.121Z,12.60
2018-11-10T06:53:21.502Z,12.60
2018-11-10T06:55:49.801Z,12.60
2018-11-10T06:58:18.073Z,12.60
2018-11-10T07:00:46.503Z,12.60
2018-11-10T07:03:14.892Z,12.70
2018-11-10T07:05:43.265Z,12.70
2018-11-10T07:08:11.537Z,12.70
2018-11-10T07:10:39.901Z,12.70
2018-11-10T07:13:08.332Z,12.70
2018-11-10T07:15:36.637Z,12.70
2018-11-10T07:18:05.423Z,12.70
2018-11-10T07:20:33.715Z,12.70
2018-11-10T07:23:02.037Z,12.70
2018-11-10T07:25:30.341Z,12.80
2018-11-10T07:27:58.601Z,12.80
2018-11-10T07:30:26.922Z,12.90
2018-11-10T07:32:55.213Z,13.00
2018-11-10T07:35:23.522Z,13.10
2018-11-10T07:37:51.986Z,13.10
2018-11-10T07:40:20.376Z,13.10
2018-11-10T07:42:48.672Z,13.10
2018-11-10T07:45:16.970Z,13.10
2018-11-10T07:47:47.141Z,13.00
2018-11-10T07:50:15.377Z,13.10
2018-11-10T07:52:43.752Z,13.10
2018-11-10T07:55:13.486Z,13.10
2018-11-10T07:57:41.761Z,13.10
2018-11-10T08:00:13.325Z,13.10
2018-11-10T08:02:41.610Z,13.10
2018-11-10T08:05:10.862Z,13.10
2018-11-10T08:07:41.970Z,13.10
2018-11-10T08:10:11.178Z,13.20
2018-11-10T08:12:40.068Z,13.10
2018-11-10T08:15:12.273Z,13.10
2018-11-10T08:17:41.562Z,13.10
2018-11-10T08:20:12.229Z,13.10
2018-11-10T08:22:42.118Z,13.10
2018-11-10T08:25:13.169Z,13.10
2018-11-10T08:27:43.277Z,13.10
2018-11-10T08:30:14.736Z,13.10
2018-11-10T08:32:44.039Z,13.10
2018-11-10T08:35:13.361Z,13.20
2018-11-10T08:37:41.650Z,13.20
2018-11-10T08:40:13.424Z,13.20
2018-11-10T08:42:41.722Z,13.30
2018-11-10T08:45:11.482Z,13.30
2018-11-10T08:47:40.068Z,13.30
2018-11-10T08:50:09.574Z,13.30
2018-11-10T08:52:37.846Z,13.30
2018-11-10T08:55:06.895Z,13.30
2018-11-10T08:57:35.505Z,13.30
2018-11-10T09:00:04.034Z,13.30
2018-11-10T09:02:40.619Z,13.30
2018-11-10T09:05:10.368Z,13.40
2018-11-10T09:07:38.802Z,13.50
2018-11-10T09:10:08.854Z,13.50
2018-11-10T09:12:37.075Z,13.50
2018-11-10T09:15:07.389Z,13.50
2018-11-10T09:17:35.599Z,13.60
2018-11-10T09:20:04.467Z,13.60
2018-11-10T09:22:32.696Z,13.60
2018-11-10T09:25:00.979Z,13.60
2018-11-10T09:27:29.219Z,13.60
2018-11-10T09:29:57.478Z,13.60
2018-11-10T09:32:26.139Z,13.60
2018-11-10T09:34:54.399Z,13.60
2018-11-10T09:37:22.676Z,13.70
2018-11-10T09:39:50.959Z,13.70
2018-11-10T09:42:19.307Z,13.70
2018-11-10T09:44:47.479Z,13.70
2018-11-10T09:47:15.811Z,13.80
2018-11-10T09:49:44.080Z,13.80
2018-11-10T09:52:12.323Z,13.80
2018-11-10T09:54:40.575Z,13.80
2018-11-10T09:57:08.848Z,13.80
2018-11-10T09:59:37.103Z,13.80
2018-11-10T10:02:06.086Z,13.80
2018-11-10T10:04:34.095Z,13.80
2018-11-10T10:07:02.355Z,13.80
2018-11-10T10:09:30.596Z,13.80
2018-11-10T10:11:58.840Z,13.70
2018-11-10T10:14:27.095Z,13.70
2018-11-10T10:16:55.352Z,13.80
2018-11-10T10:19:23.628Z,13.80
2018-11-10T10:21:51.928Z,13.70
2018-11-10T10:24:20.088Z,13.80
2018-11-10T10:26:48.335Z,13.80
2018-11-10T10:29:16.560Z,13.70
2018-11-10T10:31:44.812Z,13.70
2018-11-10T10:34:13.101Z,13.80
2018-11-10T10:36:41.336Z,13.80
2018-11-10T10:39:10.139Z,13.80
2018-11-10T10:41:38.864Z,13.80
2018-11-10T10:44:07.876Z,13.80
2018-11-10T10:46:36.165Z,13.80
2018-11-10T10:49:04.726Z,13.90
2018-11-10T10:51:32.931Z,13.90
2018-11-10T10:54:01.460Z,13.90
2018-11-10T10:56:30.031Z,13.90
2018-11-10T10:58:58.193Z,13.90
2018-11-10T11:01:31.881Z,14.00
2018-11-10T11:04:00.572Z,14.00
2018-11-10T11:06:28.840Z,14.00
2018-11-10T11:08:57.161Z,14.00
2018-11-10T11:11:25.356Z,14.00
2018-11-10T11:13:53.588Z,14.10
2018-11-10T11:16:21.816Z,14.20
2018-11-10T11:18:50.077Z,14.30
2018-11-10T11:21:18.332Z,14.30
2018-11-10T11:23:46.577Z,14.30
2018-11-10T11:26:14.808Z,14.30
2018-11-10T11:28:43.036Z,14.30
2018-11-10T11:31:11.365Z,14.30
2018-11-10T11:33:39.558Z,14.30
2018-11-10T11:36:07.789Z,14.40
2018-11-10T11:38:36.045Z,14.40
2018-11-10T11:41:04.471Z,14.30
2018-11-10T11:43:32.689Z,14.30
2018-11-10T11:46:00.936Z,14.30
2018-11-10T11:48:29.252Z,14.30
2018-11-10T11:50:57.496Z,14.30
2018-11-10T11:53:25.789Z,14.20
2018-11-10T11:55:54.043Z,14.30
2018-11-10T11:58:22.375Z,14.30
2018-11-10T12:00:50.624Z,14.30
2018-11-10T12:03:18.923Z,14.30
2018-11-10T12:05:47.281Z,14.30
2018-11-10T12:08:15.596Z,14.30
2018-11-10T12:10:43.865Z,14.30
2018-11-10T12:13:12.163Z,14.30
2018-11-10T12:15:40.490Z,14.40
2018-11-10T12:18:08.711Z,14.30
2018-11-10T12:20:36.956Z,14.30
2018-11-10T12:23:05.417Z,14.30
2018-11-10T12:25:33.668Z,14.20
2018-11-10T12:28:01.912Z,14.20
2018-11-10T12:30:30.137Z,14.20
2018-11-10T12:32:58.465Z,14.20
2018-11-10T12:35:26.721Z,14.20
2018-11-10T12:37:55.901Z,14.20
2018-11-10T12:40:24.161Z,14.10
2018-11-10T12:42:52.455Z,14.10
2018-11-10T12:45:20.707Z,14.10
2018-11-10T12:47:48.937Z,14.10
2018-11-10T12:50:17.181Z,14.10
2018-11-10T12:52:45.873Z,14.10
2018-11-10T12:55:15.334Z,14.00
2018-11-10T12:57:44.261Z,14.00
2018-11-10T13:00:14.208Z,14.00
2018-11-10T13:02:43.001Z,13.90
2018-11-10T13:05:11.878Z,13.90
2018-11-10T13:07:41.374Z,13.90
2018-11-10T13:10:10.253Z,13.90
2018-11-10T13:12:38.749Z,13.80
2018-11-10T13:15:07.214Z,13.80
2018-11-10T13:17:35.508Z,13.80
2018-11-10T13:20:03.762Z,13.70
2018-11-10T13:22:31.978Z,13.70
2018-11-10T13:25:00.234Z,13.60
2018-11-10T13:27:28.585Z,13.60
2018-11-10T13:29:56.869Z,13.70
2018-11-10T13:32:25.130Z,13.70
2018-11-10T13:34:53.382Z,13.60
2018-11-10T13:37:21.620Z,13.60
2018-11-10T13:39:49.862Z,13.70
2018-11-10T13:42:18.200Z,13.60
2018-11-10T13:44:46.405Z,13.60
2018-11-10T13:47:14.639Z,13.60
2018-11-10T13:49:42.881Z,13.60
2018-11-10T13:52:11.479Z,13.60
2018-11-10T13:54:39.414Z,13.50
2018-11-10T13:57:14.031Z,13.50
2018-11-10T13:59:42.309Z,13.50
2018-11-10T14:02:10.538Z,13.50
2018-11-10T14:04:38.765Z,13.50
2018-11-10T14:07:07.012Z,13.50
2018-11-10T14:09:35.258Z,13.50
2018-11-10T14:12:03.515Z,13.50
2018-11-10T14:14:31.775Z,13.50
2018-11-10T14:17:00.024Z,13.50
2018-11-10T14:19:28.263Z,13.50
2018-11-10T14:21:56.522Z,13.50
2018-11-10T14:24:24.755Z,13.50
2018-11-10T14:26:53.015Z,13.60
2018-11-10T14:29:21.263Z,13.50
2018-11-10T14:31:49.555Z,13.50
2018-11-10T14:34:17.866Z,13.50
2018-11-10T14:36:46.227Z,13.50
2018-11-10T14:39:14.502Z,13.50
2018-11-10T14:41:42.768Z,13.50
2018-11-10T14:44:11.087Z,13.50
2018-11-10T14:46:39.272Z,13.50
2018-11-10T14:49:07.926Z,13.50
2018-11-10T14:51:36.171Z,13.50
2018-11-10T14:54:04.707Z,13.40
2018-11-10T14:56:32.943Z,13.40
2018-11-10T14:59:01.256Z,13.40
2018-11-10T15:01:29.499Z,13.40
2018-11-10T15:03:58.901Z,13.30
2018-11-10T15:06:34.631Z,13.30
2018-11-10T15:09:02.943Z,13.30
2018-11-10T15:11:32.495Z,13.30
2018-11-10T15:14:00.919Z,13.30
2018-11-10T15:16:30.083Z,13.30
2018-11-10T15:18:58.395Z,13.30
2018-11-10T15:21:27.636Z,13.30
2018-11-10T15:23:56.335Z,13.30
2018-11-10T15:26:24.923Z,13.20
2018-11-10T15:28:53.275Z,13.20
2018-11-10T15:31:22.016Z,13.30
2018-11-10T15:33:51.320Z,13.30
2018-11-10T15:36:19.849Z,13.30
2018-11-10T15:38:48.308Z,13.30
2018-11-10T15:41:17.128Z,13.30
2018-11-10T15:43:45.464Z,13.30
2018-11-10T15:46:14.312Z,13.30
2018-11-10T15:48:42.875Z,13.20
2018-11-10T15:51:11.459Z,13.30
2018-11-10T15:53:39.872Z,13.30
2018-11-10T15:56:08.357Z,13.30
2018-11-10T15:58:36.732Z,13.30
2018-11-10T16:01:06.717Z,13.30
2018-11-10T16:03:36.066Z,13.30
2018-11-10T16:06:04.519Z,13.30
2018-11-10T16:08:32.884Z,13.30
2018-11-10T16:11:01.273Z,13.30
2018-11-10T16:13:29.604Z,13.30
2018-11-10T16:16:01.004Z,13.40
2018-11-10T16:18:29.519Z,13.40
2018-11-10T16:20:57.899Z,13.30
2018-11-10T16:23:26.320Z,13.40
2018-11-10T16:25:54.698Z,13.40
2018-11-10T16:28:23.127Z,13.40
2018-11-10T16:30:51.472Z,13.40
2018-11-10T16:33:19.898Z,13.40
2018-11-10T16:35:48.301Z,13.30
2018-11-10T16:38:16.852Z,13.30
2018-11-10T16:40:45.180Z,13.30
2018-11-10T16:43:13.613Z,13.40
2018-11-10T16:45:42.037Z,13.40
2018-11-10T16:48:10.450Z,13.30
2018-11-10T16:50:38.857Z,13.30
2018-11-10T16:53:07.856Z,13.40
2018-11-10T16:55:36.189Z,13.30
2018-11-10T16:58:05.626Z,13.40
2018-11-10T17:00:34.213Z,13.30
2018-11-10T17:03:02.728Z,13.40
2018-11-10T17:05:31.311Z,13.40
2018-11-10T17:07:59.692Z,13.40
2018-11-10T17:10:28.161Z,13.40
2018-11-10T17:12:56.485Z,13.50
2018-11-10T17:15:24.891Z,13.50
2018-11-10T17:17:53.302Z,13.50
2018-11-10T17:20:21.805Z,13.60
2018-11-10T17:22:50.126Z,13.50
2018-11-10T17:25:18.506Z,13.50
2018-11-10T17:27:46.991Z,13.50
2018-11-10T17:30:16.807Z,13.60
2018-11-10T17:32:45.072Z,13.60
2018-11-10T17:35:13.893Z,13.60
2018-11-10T17:37:42.374Z,13.60
2018-11-10T17:40:11.647Z,13.60
2018-11-10T17:42:40.022Z,13.60
2018-11-10T17:45:10.414Z,13.60
2018-11-10T17:47:38.881Z,13.50
2018-11-10T17:50:13.074Z,13.50
2018-11-10T17:52:41.830Z,13.40
2018-11-10T17:55:11.575Z,13.40
2018-11-10T17:57:40.394Z,13.40
2018-11-10T18:00:08.885Z,13.40
2018-11-10T18:02:37.250Z,13.40
2018-11-10T18:05:07.269Z,13.30
2018-11-10T18:07:35.590Z,13.30
2018-11-10T18:10:04.125Z,13.30
2018-11-10T18:12:32.530Z,13.30
2018-11-10T18:15:00.898Z,13.30
2018-11-10T18:17:35.978Z,13.30
2018-11-10T18:20:04.821Z,13.40
2018-11-10T18:22:33.198Z,13.40
2018-11-10T18:25:01.591Z,13.40
2018-11-10T18:27:29.863Z,13.40
2018-11-10T18:29:58.275Z,13.40
2018-11-10T18:32:26.863Z,13.40
2018-11-10T18:34:55.179Z,13.40
2018-11-10T18:37:23.594Z,13.30
2018-11-10T18:39:52.073Z,13.30
2018-11-10T18:42:20.507Z,13.30
2018-11-10T18:44:48.856Z,13.30
2018-11-10T18:47:17.175Z,13.40
2018-11-10T18:49:45.515Z,13.40
2018-11-10T18:52:14.198Z,13.40
2018-11-10T18:54:42.426Z,13.50
2018-11-10T18:57:10.918Z,13.50
2018-11-10T18:59:39.143Z,13.50
2018-11-10T19:02:07.478Z,13.40
2018-11-10T19:04:35.783Z,13.50
2018-11-10T19:07:04.150Z,13.40
2018-11-10T19:09:32.595Z,13.40
2018-11-10T19:12:00.994Z,13.40
2018-11-10T19:14:29.420Z,13.40
2018-11-10T19:16:57.743Z,13.50
2018-11-10T19:19:26.253Z,13.50
2018-11-10T19:21:54.828Z,13.60
2018-11-10T19:24:23.119Z,13.60
2018-11-10T19:26:51.428Z,13.60
2018-11-10T19:29:19.931Z,13.60
2018-11-10T19:31:48.235Z,13.60
2018-11-10T19:34:16.655Z,13.60
2018-11-10T19:36:44.984Z,13.60
2018-11-10T19:39:13.455Z,13.60
2018-11-10T19:41:42.023Z,13.60
2018-11-10T19:44:10.904Z,13.60
2018-11-10T19:46:40.364Z,13.60
2018-11-10T19:49:09.175Z,13.60
2018-11-10T19:51:37.808Z,13.60
2018-11-10T19:54:05.844Z,13.60
2018-11-10T19:56:34.111Z,13.60
2018-11-10T19:59:02.495Z,13.60
2018-11-10T20:01:30.875Z,13.60
2018-11-10T20:03:59.249Z,13.60
2018-11-10T20:06:27.648Z,13.60
2018-11-10T20:08:55.960Z,13.60
2018-11-10T20:11:24.380Z,13.60
2018-11-10T20:13:52.873Z,13.60
2018-11-10T20:16:21.272Z,13.60
2018-11-10T20:18:49.649Z,13.60
2018-11-10T20:21:18.099Z,13.60
2018-11-10T20:23:46.513Z,13.60
2018-11-10T20:26:14.875Z,13.60
2018-11-10T20:28:43.150Z,13.60
2018-11-10T20:31:11.448Z,13.60
2018-11-10T20:33:39.728Z,13.60
2018-11-10T20:36:08.044Z,13.60
2018-11-10T20:38:36.392Z,13.60
2018-11-10T20:41:05.116Z,13.70
2018-11-10T20:43:33.500Z,13.80
2018-11-10T20:46:01.864Z,13.70
2018-11-10T20:48:30.264Z,13.70
2018-11-10T20:50:58.633Z,13.70
2018-11-10T20:53:26.930Z,13.60
2018-11-10T20:55:55.193Z,13.60
2018-11-10T20:58:23.524Z,13.60
2018-11-10T21:00:51.917Z,13.60
2018-11-10T21:03:21.925Z,13.50
2018-11-10T21:05:50.288Z,13.50
2018-11-10T21:08:18.617Z,13.40
2018-11-10T21:10:47.013Z,13.30
2018-11-10T21:13:15.404Z,13.30
2018-11-10T21:15:43.708Z,13.30
2018-11-10T21:18:12.049Z,13.30
2018-11-10T21:20:40.339Z,13.20
2018-11-10T21:23:08.784Z,13.20
2018-11-10T21:25:37.133Z,13.20
2018-11-10T21:28:05.589Z,13.10
2018-11-10T21:30:33.917Z,13.10
2018-11-10T21:33:02.401Z,13.10
2018-11-10T21:35:30.822Z,13.00
2018-11-10T21:37:59.201Z,13.00
2018-11-10T21:40:27.577Z,13.00
2018-11-10T21:42:56.005Z,12.90
2018-11-10T21:45:24.352Z,12.90
2018-11-10T21:47:52.729Z,12.90
2018-11-10T21:50:21.118Z,12.90
2018-11-10T21:52:49.459Z,12.90
2018-11-10T21:55:19.159Z,12.90
2018-11-10T21:57:48.185Z,12.90
2018-11-10T22:00:18.094Z,12.90
2018-11-10T22:02:46.920Z,12.90
2018-11-10T22:05:15.223Z,12.90
2018-11-10T22:07:43.546Z,12.90
2018-11-10T22:10:14.105Z,12.90
2018-11-10T22:12:42.581Z,12.80
2018-11-10T22:15:14.730Z,12.80
2018-11-10T22:17:43.996Z,12.80
2018-11-10T22:20:15.418Z,12.80
2018-11-10T22:22:43.759Z,12.80
2018-11-10T22:25:13.353Z,12.80
2018-11-10T22:27:42.882Z,12.80
2018-11-10T22:30:13.077Z,12.80
2018-11-10T22:32:42.008Z,12.80
2018-11-10T22:35:10.645Z,12.80
2018-11-10T22:37:39.072Z,12.80
2018-11-10T22:40:09.958Z,12.80
2018-11-10T22:42:39.198Z,12.80
2018-11-10T22:45:09.283Z,12.80
2018-11-10T22:47:37.989Z,12.70
2018-11-10T22:50:09.302Z,12.80
2018-11-10T22:52:37.734Z,12.70
2018-11-10T22:55:06.682Z,12.70
2018-11-10T22:57:35.114Z,12.70
2018-11-10T23:00:04.295Z,12.70
2018-11-10T23:02:32.642Z,12.80
2018-11-10T23:05:00.935Z,12.80
2018-11-10T23:07:29.379Z,12.80
2018-11-10T23:09:57.662Z,12.80
2018-11-10T23:12:25.990Z,12.80
2018-11-10T23:14:54.303Z,12.80
2018-11-10T23:17:22.687Z,12.80
2018-11-10T23:19:50.975Z,12.80
2018-11-10T23:22:19.342Z,12.80
2018-11-10T23:24:47.634Z,12.80
2018-11-10T23:27:15.963Z,12.80
2018-11-10T23:29:44.410Z,12.70
2018-11-10T23:32:12.786Z,12.70
2018-11-10T23:34:41.081Z,12.70
2018-11-10T23:37:09.443Z,12.70
2018-11-10T23:39:37.859Z,12.70
2018-11-10T23:42:06.327Z,12.70
2018-11-10T23:44:34.939Z,12.70
2018-11-10T23:47:03.211Z,12.70
2018-11-10T23:49:31.610Z,12.70
2018-11-10T23:51:59.978Z,12.70
2018-11-10T23:54:28.359Z,12.70
2018-11-10T23:56:56.654Z,12.70
2018-11-10T23:59:25.106Z,12.70
